sensor_id;sensor_type;location;lat;lon;timestamp;P1;durP1;ratioP1;P2;durP2;ratioP2
46377;SDS011;32083;47.360;9.650;2023-09-19T00:00:05;1.83;;;1.00;;
46377;SDS011;32083;47.360;9.650;2023-09-19T00:06:02;1.60;;;1.00;;
46377;SDS011;32083;47.360;9.650;2023-09-19T00:08:38;2.45;;;0.93;;
46377;SDS011;32083;47.360;9.650;2023-09-19T00:11:33;1.75;;;1.27;;
46377;SDS011;32083;47.360;9.650;2023-09-19T00:14:50;2.78;;;1.42;;
46377;SDS011;32083;47.360;9.650;2023-09-19T00:28:10;0.85;;;0.70;;
46377;SDS011;32083;47.360;9.650;2023-09-19T00:36:52;1.50;;;1.02;;
46377;SDS011;32083;47.360;9.650;2023-09-19T00:40:09;1.40;;;1.00;;
46377;SDS011;32083;47.360;9.650;2023-09-19T00:58:35;3.05;;;0.95;;
46377;SDS011;32083;47.360;9.650;2023-09-19T01:01:40;4.28;;;1.52;;
46377;SDS011;32083;47.360;9.650;2023-09-19T01:05:03;1.83;;;0.98;;
46377;SDS011;32083;47.360;9.650;2023-09-19T01:08:13;2.53;;;1.05;;
46377;SDS011;32083;47.360;9.650;2023-09-19T01:10:55;1.88;;;0.85;;
46377;SDS011;32083;47.360;9.650;2023-09-19T01:23:12;1.63;;;1.27;;
46377;SDS011;32083;47.360;9.650;2023-09-19T01:32:03;1.30;;;0.98;;
46377;SDS011;32083;47.360;9.650;2023-09-19T01:44:04;1.75;;;0.90;;
46377;SDS011;32083;47.360;9.650;2023-09-19T01:46:24;1.55;;;0.88;;
46377;SDS011;32083;47.360;9.650;2023-09-19T01:56:07;1.77;;;0.90;;
46377;SDS011;32083;47.360;9.650;2023-09-19T01:59:04;2.08;;;1.52;;
46377;SDS011;32083;47.360;9.650;2023-09-19T02:05:32;5.22;;;1.33;;
46377;SDS011;32083;47.360;9.650;2023-09-19T02:11:50;2.25;;;0.85;;
46377;SDS011;32083;47.360;9.650;2023-09-19T02:14:46;2.72;;;0.90;;
46377;SDS011;32083;47.360;9.650;2023-09-19T02:26:36;1.45;;;0.80;;
46377;SDS011;32083;47.360;9.650;2023-09-19T02:32:44;3.28;;;1.17;;
46377;SDS011;32083;47.360;9.650;2023-09-19T02:39:39;3.35;;;1.23;;
46377;SDS011;32083;47.360;9.650;2023-09-19T02:43:04;1.15;;;0.80;;
46377;SDS011;32083;47.360;9.650;2023-09-19T02:45:55;4.68;;;1.17;;
46377;SDS011;32083;47.360;9.650;2023-09-19T02:49:04;1.77;;;1.10;;
46377;SDS011;32083;47.360;9.650;2023-09-19T02:51:47;2.28;;;1.40;;
46377;SDS011;32083;47.360;9.650;2023-09-19T02:54:46;3.30;;;0.90;;
46377;SDS011;32083;47.360;9.650;2023-09-19T03:04:00;1.40;;;0.90;;
46377;SDS011;32083;47.360;9.650;2023-09-19T03:06:58;2.38;;;1.00;;
46377;SDS011;32083;47.360;9.650;2023-09-19T03:19:11;3.38;;;1.15;;
46377;SDS011;32083;47.360;9.650;2023-09-19T03:21:59;2.75;;;1.13;;
46377;SDS011;32083;47.360;9.650;2023-09-19T03:24:32;2.45;;;0.90;;
46377;SDS011;32083;47.360;9.650;2023-09-19T03:30:15;1.40;;;1.20;;
46377;SDS011;32083;47.360;9.650;2023-09-19T03:36:08;2.67;;;0.75;;
46377;SDS011;32083;47.360;9.650;2023-09-19T03:39:10;1.83;;;0.93;;
46377;SDS011;32083;47.360;9.650;2023-09-19T03:41:47;2.15;;;1.00;;
46377;SDS011;32083;47.360;9.650;2023-09-19T03:47:37;3.00;;;1.00;;
46377;SDS011;32083;47.360;9.650;2023-09-19T03:50:16;3.30;;;1.30;;
46377;SDS011;32083;47.360;9.650;2023-09-19T03:53:14;2.80;;;1.33;;
46377;SDS011;32083;47.360;9.650;2023-09-19T03:55:57;2.20;;;0.93;;
46377;SDS011;32083;47.360;9.650;2023-09-19T03:58:44;5.15;;;1.45;;
46377;SDS011;32083;47.360;9.650;2023-09-19T04:01:42;3.53;;;1.50;;
46377;SDS011;32083;47.360;9.650;2023-09-19T04:04:38;2.10;;;1.30;;
46377;SDS011;32083;47.360;9.650;2023-09-19T04:07:07;2.75;;;1.38;;
46377;SDS011;32083;47.360;9.650;2023-09-19T04:10:11;3.25;;;1.50;;
46377;SDS011;32083;47.360;9.650;2023-09-19T04:13:13;2.95;;;1.45;;
46377;SDS011;32083;47.360;9.650;2023-09-19T04:22:11;4.10;;;1.30;;
46377;SDS011;32083;47.360;9.650;2023-09-19T04:24:49;2.42;;;1.30;;
46377;SDS011;32083;47.360;9.650;2023-09-19T04:27:58;2.63;;;1.65;;
46377;SDS011;32083;47.360;9.650;2023-09-19T04:31:12;1.75;;;1.30;;
46377;SDS011;32083;47.360;9.650;2023-09-19T04:33:57;1.52;;;1.00;;
46377;SDS011;32083;47.360;9.650;2023-09-19T04:36:28;3.13;;;1.38;;
46377;SDS011;32083;47.360;9.650;2023-09-19T04:38:55;2.25;;;1.40;;
46377;SDS011;32083;47.360;9.650;2023-09-19T04:41:20;3.63;;;1.52;;
46377;SDS011;32083;47.360;9.650;2023-09-19T04:43:47;2.88;;;1.52;;
46377;SDS011;32083;47.360;9.650;2023-09-19T04:46:16;1.88;;;1.33;;
46377;SDS011;32083;47.360;9.650;2023-09-19T04:48:43;2.97;;;1.23;;
46377;SDS011;32083;47.360;9.650;2023-09-19T04:51:09;2.90;;;1.20;;
46377;SDS011;32083;47.360;9.650;2023-09-19T04:53:35;2.88;;;1.20;;
46377;SDS011;32083;47.360;9.650;2023-09-19T04:56:02;3.10;;;1.65;;
46377;SDS011;32083;47.360;9.650;2023-09-19T04:58:28;2.05;;;1.23;;
46377;SDS011;32083;47.360;9.650;2023-09-19T05:00:55;3.10;;;1.33;;
46377;SDS011;32083;47.360;9.650;2023-09-19T05:03:22;3.92;;;1.30;;
46377;SDS011;32083;47.360;9.650;2023-09-19T05:05:48;4.43;;;1.13;;
46377;SDS011;32083;47.360;9.650;2023-09-19T05:08:14;1.83;;;1.30;;
46377;SDS011;32083;47.360;9.650;2023-09-19T05:10:40;3.90;;;1.33;;
46377;SDS011;32083;47.360;9.650;2023-09-19T05:13:06;5.18;;;1.35;;
46377;SDS011;32083;47.360;9.650;2023-09-19T05:15:33;5.93;;;1.35;;
46377;SDS011;32083;47.360;9.650;2023-09-19T05:17:59;2.67;;;1.00;;
46377;SDS011;32083;47.360;9.650;2023-09-19T05:20:25;1.63;;;1.23;;
46377;SDS011;32083;47.360;9.650;2023-09-19T05:23:02;5.15;;;1.38;;
46377;SDS011;32083;47.360;9.650;2023-09-19T05:25:34;2.28;;;1.35;;
46377;SDS011;32083;47.360;9.650;2023-09-19T05:28:07;2.50;;;1.50;;
46377;SDS011;32083;47.360;9.650;2023-09-19T05:30:36;3.60;;;1.55;;
46377;SDS011;32083;47.360;9.650;2023-09-19T05:33:05;3.20;;;1.30;;
46377;SDS011;32083;47.360;9.650;2023-09-19T05:35:31;1.92;;;1.58;;
46377;SDS011;32083;47.360;9.650;2023-09-19T05:37:57;6.93;;;1.67;;
46377;SDS011;32083;47.360;9.650;2023-09-19T05:40:25;6.10;;;1.92;;
46377;SDS011;32083;47.360;9.650;2023-09-19T05:42:51;1.95;;;1.45;;
46377;SDS011;32083;47.360;9.650;2023-09-19T05:45:17;2.67;;;1.48;;
46377;SDS011;32083;47.360;9.650;2023-09-19T05:47:47;7.28;;;5.72;;
46377;SDS011;32083;47.360;9.650;2023-09-19T05:50:16;3.08;;;1.40;;
46377;SDS011;32083;47.360;9.650;2023-09-19T05:52:53;2.70;;;1.70;;
46377;SDS011;32083;47.360;9.650;2023-09-19T05:55:21;4.20;;;1.90;;
46377;SDS011;32083;47.360;9.650;2023-09-19T05:57:52;3.08;;;1.88;;
46377;SDS011;32083;47.360;9.650;2023-09-19T06:00:19;4.10;;;1.60;;
46377;SDS011;32083;47.360;9.650;2023-09-19T06:02:51;2.10;;;1.52;;
46377;SDS011;32083;47.360;9.650;2023-09-19T06:05:18;4.47;;;1.45;;
46377;SDS011;32083;47.360;9.650;2023-09-19T06:07:45;4.45;;;1.50;;
46377;SDS011;32083;47.360;9.650;2023-09-19T06:10:12;2.85;;;1.40;;
46377;SDS011;32083;47.360;9.650;2023-09-19T06:12:40;2.75;;;2.20;;
46377;SDS011;32083;47.360;9.650;2023-09-19T06:15:08;2.35;;;1.92;;
46377;SDS011;32083;47.360;9.650;2023-09-19T06:17:38;4.35;;;2.05;;
46377;SDS011;32083;47.360;9.650;2023-09-19T06:20:05;2.88;;;2.28;;
46377;SDS011;32083;47.360;9.650;2023-09-19T06:22:38;3.05;;;2.22;;
46377;SDS011;32083;47.360;9.650;2023-09-19T06:25:07;4.18;;;2.53;;
46377;SDS011;32083;47.360;9.650;2023-09-19T06:27:40;3.58;;;2.22;;
46377;SDS011;32083;47.360;9.650;2023-09-19T06:30:10;2.77;;;2.30;;
46377;SDS011;32083;47.360;9.650;2023-09-19T06:32:37;2.67;;;2.15;;
46377;SDS011;32083;47.360;9.650;2023-09-19T06:35:03;4.60;;;2.38;;
46377;SDS011;32083;47.360;9.650;2023-09-19T06:37:32;4.97;;;2.45;;
46377;SDS011;32083;47.360;9.650;2023-09-19T06:39:59;2.95;;;2.33;;
46377;SDS011;32083;47.360;9.650;2023-09-19T06:42:25;9.40;;;2.55;;
46377;SDS011;32083;47.360;9.650;2023-09-19T06:44:53;2.42;;;2.20;;
46377;SDS011;32083;47.360;9.650;2023-09-19T06:47:19;3.80;;;2.80;;
46377;SDS011;32083;47.360;9.650;2023-09-19T06:49:46;3.88;;;2.63;;
46377;SDS011;32083;47.360;9.650;2023-09-19T06:52:13;4.97;;;2.78;;
46377;SDS011;32083;47.360;9.650;2023-09-19T06:54:39;3.70;;;2.50;;
46377;SDS011;32083;47.360;9.650;2023-09-19T06:57:06;4.88;;;2.50;;
46377;SDS011;32083;47.360;9.650;2023-09-19T06:59:34;4.68;;;2.97;;
46377;SDS011;32083;47.360;9.650;2023-09-19T07:02:02;5.53;;;2.35;;
46377;SDS011;32083;47.360;9.650;2023-09-19T07:04:31;7.95;;;2.60;;
46377;SDS011;32083;47.360;9.650;2023-09-19T07:06:57;4.28;;;2.75;;
46377;SDS011;32083;47.360;9.650;2023-09-19T07:09:23;3.88;;;2.25;;
46377;SDS011;32083;47.360;9.650;2023-09-19T07:11:52;7.82;;;2.22;;
46377;SDS011;32083;47.360;9.650;2023-09-19T07:14:18;2.40;;;1.92;;
46377;SDS011;32083;47.360;9.650;2023-09-19T07:16:44;2.53;;;2.08;;
46377;SDS011;32083;47.360;9.650;2023-09-19T07:19:12;4.07;;;2.20;;
46377;SDS011;32083;47.360;9.650;2023-09-19T07:21:40;2.17;;;1.85;;
46377;SDS011;32083;47.360;9.650;2023-09-19T07:24:07;4.22;;;2.47;;
46377;SDS011;32083;47.360;9.650;2023-09-19T07:26:33;3.58;;;2.10;;
46377;SDS011;32083;47.360;9.650;2023-09-19T07:28:59;2.75;;;2.13;;
46377;SDS011;32083;47.360;9.650;2023-09-19T07:31:28;2.40;;;2.15;;
46377;SDS011;32083;47.360;9.650;2023-09-19T07:33:56;4.18;;;1.95;;
46377;SDS011;32083;47.360;9.650;2023-09-19T07:36:21;7.05;;;1.92;;
46377;SDS011;32083;47.360;9.650;2023-09-19T07:38:49;1.70;;;1.40;;
46377;SDS011;32083;47.360;9.650;2023-09-19T07:41:15;2.47;;;1.70;;
46377;SDS011;32083;47.360;9.650;2023-09-19T07:43:41;2.17;;;1.60;;
46377;SDS011;32083;47.360;9.650;2023-09-19T07:46:08;3.70;;;1.50;;
46377;SDS011;32083;47.360;9.650;2023-09-19T07:48:35;2.67;;;1.63;;
46377;SDS011;32083;47.360;9.650;2023-09-19T07:51:04;3.03;;;1.80;;
46377;SDS011;32083;47.360;9.650;2023-09-19T07:53:31;3.55;;;1.95;;
46377;SDS011;32083;47.360;9.650;2023-09-19T07:56:06;2.63;;;1.48;;
46377;SDS011;32083;47.360;9.650;2023-09-19T07:58:33;2.20;;;1.60;;
46377;SDS011;32083;47.360;9.650;2023-09-19T08:01:04;2.95;;;1.75;;
46377;SDS011;32083;47.360;9.650;2023-09-19T08:03:32;3.22;;;1.90;;
46377;SDS011;32083;47.360;9.650;2023-09-19T08:05:59;2.78;;;1.67;;
46377;SDS011;32083;47.360;9.650;2023-09-19T08:08:26;3.50;;;1.20;;
46377;SDS011;32083;47.360;9.650;2023-09-19T08:10:56;2.47;;;1.10;;
46377;SDS011;32083;47.360;9.650;2023-09-19T08:13:25;2.45;;;1.50;;
46377;SDS011;32083;47.360;9.650;2023-09-19T08:15:51;2.30;;;1.45;;
46377;SDS011;32083;47.360;9.650;2023-09-19T08:18:18;7.72;;;1.77;;
46377;SDS011;32083;47.360;9.650;2023-09-19T08:20:50;3.10;;;1.42;;
46377;SDS011;32083;47.360;9.650;2023-09-19T08:23:17;2.65;;;1.50;;
46377;SDS011;32083;47.360;9.650;2023-09-19T08:25:45;2.25;;;1.85;;
46377;SDS011;32083;47.360;9.650;2023-09-19T08:28:12;3.03;;;1.70;;
46377;SDS011;32083;47.360;9.650;2023-09-19T08:30:43;2.50;;;1.77;;
46377;SDS011;32083;47.360;9.650;2023-09-19T08:33:09;2.90;;;1.70;;
46377;SDS011;32083;47.360;9.650;2023-09-19T08:35:35;5.60;;;1.60;;
46377;SDS011;32083;47.360;9.650;2023-09-19T08:38:03;1.75;;;1.25;;
46377;SDS011;32083;47.360;9.650;2023-09-19T08:40:32;4.50;;;2.08;;
46377;SDS011;32083;47.360;9.650;2023-09-19T08:43:05;6.90;;;1.58;;
46377;SDS011;32083;47.360;9.650;2023-09-19T08:45:33;7.05;;;1.70;;
46377;SDS011;32083;47.360;9.650;2023-09-19T08:56:10;2.17;;;1.30;;
46377;SDS011;32083;47.360;9.650;2023-09-19T08:58:50;3.47;;;1.38;;
46377;SDS011;32083;47.360;9.650;2023-09-19T09:01:28;3.03;;;1.38;;
46377;SDS011;32083;47.360;9.650;2023-09-19T09:03:57;4.20;;;1.63;;
46377;SDS011;32083;47.360;9.650;2023-09-19T09:06:24;3.10;;;1.67;;
46377;SDS011;32083;47.360;9.650;2023-09-19T09:08:51;3.78;;;1.75;;
46377;SDS011;32083;47.360;9.650;2023-09-19T09:11:17;3.67;;;2.00;;
46377;SDS011;32083;47.360;9.650;2023-09-19T09:13:44;2.20;;;1.77;;
46377;SDS011;32083;47.360;9.650;2023-09-19T09:16:11;3.40;;;1.83;;
46377;SDS011;32083;47.360;9.650;2023-09-19T09:18:38;3.08;;;2.53;;
46377;SDS011;32083;47.360;9.650;2023-09-19T09:21:05;3.22;;;1.88;;
46377;SDS011;32083;47.360;9.650;2023-09-19T09:23:31;2.17;;;1.75;;
46377;SDS011;32083;47.360;9.650;2023-09-19T09:25:58;1.95;;;1.52;;
46377;SDS011;32083;47.360;9.650;2023-09-19T09:28:28;2.97;;;2.17;;
46377;SDS011;32083;47.360;9.650;2023-09-19T09:30:56;1.60;;;1.17;;
46377;SDS011;32083;47.360;9.650;2023-09-19T09:33:23;1.25;;;0.75;;
46377;SDS011;32083;47.360;9.650;2023-09-19T09:35:54;1.15;;;0.90;;
46377;SDS011;32083;47.360;9.650;2023-09-19T09:38:27;2.33;;;1.08;;
46377;SDS011;32083;47.360;9.650;2023-09-19T09:40:57;1.92;;;0.82;;
46377;SDS011;32083;47.360;9.650;2023-09-19T09:51:42;2.15;;;0.95;;
46377;SDS011;32083;47.360;9.650;2023-09-19T09:54:25;2.13;;;0.90;;
46377;SDS011;32083;47.360;9.650;2023-09-19T09:56:59;0.75;;;0.63;;
46377;SDS011;32083;47.360;9.650;2023-09-19T10:02:13;6.25;;;1.40;;
46377;SDS011;32083;47.360;9.650;2023-09-19T10:04:45;2.88;;;0.90;;
46377;SDS011;32083;47.360;9.650;2023-09-19T10:07:24;2.25;;;1.00;;
46377;SDS011;32083;47.360;9.650;2023-09-19T10:09:58;1.95;;;1.00;;
46377;SDS011;32083;47.360;9.650;2023-09-19T10:12:34;3.15;;;1.23;;
46377;SDS011;32083;47.360;9.650;2023-09-19T10:15:04;1.38;;;1.00;;
46377;SDS011;32083;47.360;9.650;2023-09-19T10:17:33;1.63;;;0.80;;
46377;SDS011;32083;47.360;9.650;2023-09-19T10:20:01;1.98;;;1.08;;
46377;SDS011;32083;47.360;9.650;2023-09-19T10:22:38;3.75;;;0.95;;
46377;SDS011;32083;47.360;9.650;2023-09-19T10:25:07;1.55;;;0.80;;
46377;SDS011;32083;47.360;9.650;2023-09-19T10:27:35;1.60;;;0.75;;
46377;SDS011;32083;47.360;9.650;2023-09-19T10:30:03;0.88;;;0.73;;
46377;SDS011;32083;47.360;9.650;2023-09-19T10:32:34;2.10;;;0.77;;
46377;SDS011;32083;47.360;9.650;2023-09-19T10:35:01;1.95;;;0.98;;
46377;SDS011;32083;47.360;9.650;2023-09-19T10:37:30;1.10;;;0.73;;
46377;SDS011;32083;47.360;9.650;2023-09-19T10:39:59;1.10;;;0.82;;
46377;SDS011;32083;47.360;9.650;2023-09-19T10:42:25;0.80;;;0.60;;
46377;SDS011;32083;47.360;9.650;2023-09-19T10:44:54;1.77;;;0.65;;
46377;SDS011;32083;47.360;9.650;2023-09-19T10:47:25;3.10;;;0.70;;
46377;SDS011;32083;47.360;9.650;2023-09-19T10:49:51;1.40;;;0.80;;
46377;SDS011;32083;47.360;9.650;2023-09-19T10:52:22;1.85;;;0.95;;
46377;SDS011;32083;47.360;9.650;2023-09-19T10:54:52;1.52;;;0.70;;
46377;SDS011;32083;47.360;9.650;2023-09-19T10:57:22;0.70;;;0.50;;
46377;SDS011;32083;47.360;9.650;2023-09-19T11:00:05;1.13;;;0.90;;
46377;SDS011;32083;47.360;9.650;2023-09-19T11:05:37;0.70;;;0.70;;
46377;SDS011;32083;47.360;9.650;2023-09-19T11:08:08;1.48;;;0.70;;
46377;SDS011;32083;47.360;9.650;2023-09-19T11:10:46;2.00;;;0.88;;
46377;SDS011;32083;47.360;9.650;2023-09-19T11:13:33;1.55;;;0.70;;
46377;SDS011;32083;47.360;9.650;2023-09-19T11:16:03;1.27;;;0.65;;
46377;SDS011;32083;47.360;9.650;2023-09-19T11:26:47;1.10;;;0.77;;
46377;SDS011;32083;47.360;9.650;2023-09-19T11:29:26;1.38;;;0.77;;
46377;SDS011;32083;47.360;9.650;2023-09-19T11:31:54;1.45;;;0.70;;
46377;SDS011;32083;47.360;9.650;2023-09-19T11:42:42;1.15;;;0.60;;
46377;SDS011;32083;47.360;9.650;2023-09-19T11:46:00;1.48;;;0.80;;
46377;SDS011;32083;47.360;9.650;2023-09-19T11:48:22;2.30;;;1.10;;
46377;SDS011;32083;47.360;9.650;2023-09-19T11:50:54;1.50;;;0.70;;
46377;SDS011;32083;47.360;9.650;2023-09-19T11:53:22;0.80;;;0.50;;
46377;SDS011;32083;47.360;9.650;2023-09-19T11:55:52;0.75;;;0.50;;
46377;SDS011;32083;47.360;9.650;2023-09-19T11:58:18;12.57;;;1.65;;
46377;SDS011;32083;47.360;9.650;2023-09-19T12:00:45;2.28;;;0.57;;
46377;SDS011;32083;47.360;9.650;2023-09-19T12:03:21;2.95;;;0.65;;
46377;SDS011;32083;47.360;9.650;2023-09-19T12:05:47;0.90;;;0.60;;
46377;SDS011;32083;47.360;9.650;2023-09-19T12:08:14;1.63;;;0.80;;
46377;SDS011;32083;47.360;9.650;2023-09-19T12:10:49;2.17;;;0.63;;
46377;SDS011;32083;47.360;9.650;2023-09-19T12:13:31;1.10;;;0.77;;
46377;SDS011;32083;47.360;9.650;2023-09-19T12:23:39;2.15;;;0.90;;
46377;SDS011;32083;47.360;9.650;2023-09-19T12:36:47;1.85;;;0.60;;
46377;SDS011;32083;47.360;9.650;2023-09-19T12:39:28;1.45;;;0.55;;
46377;SDS011;32083;47.360;9.650;2023-09-19T12:41:55;0.55;;;0.38;;
46377;SDS011;32083;47.360;9.650;2023-09-19T12:44:21;1.13;;;0.50;;
46377;SDS011;32083;47.360;9.650;2023-09-19T12:46:49;1.27;;;0.60;;
46377;SDS011;32083;47.360;9.650;2023-09-19T12:49:19;0.75;;;0.30;;
46377;SDS011;32083;47.360;9.650;2023-09-19T12:51:46;1.63;;;0.52;;
46377;SDS011;32083;47.360;9.650;2023-09-19T12:54:13;0.82;;;0.70;;
46377;SDS011;32083;47.360;9.650;2023-09-19T12:56:45;1.10;;;0.70;;
46377;SDS011;32083;47.360;9.650;2023-09-19T12:59:14;3.03;;;0.63;;
46377;SDS011;32083;47.360;9.650;2023-09-19T13:01:43;1.17;;;0.50;;
46377;SDS011;32083;47.360;9.650;2023-09-19T13:04:15;0.50;;;0.40;;
46377;SDS011;32083;47.360;9.650;2023-09-19T13:09:13;0.68;;;0.50;;
46377;SDS011;32083;47.360;9.650;2023-09-19T13:11:41;1.90;;;0.47;;
46377;SDS011;32083;47.360;9.650;2023-09-19T13:17:08;0.90;;;0.43;;
46377;SDS011;32083;47.360;9.650;2023-09-19T13:19:54;0.45;;;0.38;;
46377;SDS011;32083;47.360;9.650;2023-09-19T13:25:08;4.25;;;2.88;;
46377;SDS011;32083;47.360;9.650;2023-09-19T13:27:48;3.30;;;1.00;;
46377;SDS011;32083;47.360;9.650;2023-09-19T13:30:17;3.70;;;0.60;;
46377;SDS011;32083;47.360;9.650;2023-09-19T13:32:43;0.77;;;0.40;;
46377;SDS011;32083;47.360;9.650;2023-09-19T13:35:12;0.68;;;0.60;;
46377;SDS011;32083;47.360;9.650;2023-09-19T13:37:40;0.70;;;0.40;;
46377;SDS011;32083;47.360;9.650;2023-09-19T13:42:34;0.50;;;0.30;;
46377;SDS011;32083;47.360;9.650;2023-09-19T13:45:02;0.75;;;0.40;;
46377;SDS011;32083;47.360;9.650;2023-09-19T13:47:29;1.42;;;0.40;;
46377;SDS011;32083;47.360;9.650;2023-09-19T13:49:56;1.10;;;0.68;;
46377;SDS011;32083;47.360;9.650;2023-09-19T13:52:22;1.05;;;0.70;;
46377;SDS011;32083;47.360;9.650;2023-09-19T13:54:51;1.35;;;0.60;;
46377;SDS011;32083;47.360;9.650;2023-09-19T13:57:18;0.70;;;0.55;;
46377;SDS011;32083;47.360;9.650;2023-09-19T13:59:44;1.52;;;0.70;;
46377;SDS011;32083;47.360;9.650;2023-09-19T14:02:10;1.00;;;0.52;;
46377;SDS011;32083;47.360;9.650;2023-09-19T14:04:36;0.52;;;0.50;;
46377;SDS011;32083;47.360;9.650;2023-09-19T14:07:02;2.90;;;0.63;;
46377;SDS011;32083;47.360;9.650;2023-09-19T14:09:28;1.33;;;0.68;;
46377;SDS011;32083;47.360;9.650;2023-09-19T14:11:54;1.15;;;0.60;;
46377;SDS011;32083;47.360;9.650;2023-09-19T14:14:20;1.02;;;0.80;;
46377;SDS011;32083;47.360;9.650;2023-09-19T14:16:47;0.75;;;0.40;;
46377;SDS011;32083;47.360;9.650;2023-09-19T14:19:13;1.20;;;0.47;;
46377;SDS011;32083;47.360;9.650;2023-09-19T14:21:41;1.10;;;0.70;;
46377;SDS011;32083;47.360;9.650;2023-09-19T14:24:08;0.80;;;0.40;;
46377;SDS011;32083;47.360;9.650;2023-09-19T14:26:40;0.73;;;0.50;;
46377;SDS011;32083;47.360;9.650;2023-09-19T14:29:06;2.33;;;0.52;;
46377;SDS011;32083;47.360;9.650;2023-09-19T14:31:37;1.70;;;0.80;;
46377;SDS011;32083;47.360;9.650;2023-09-19T14:34:05;0.90;;;0.50;;
46377;SDS011;32083;47.360;9.650;2023-09-19T14:36:31;2.05;;;0.60;;
46377;SDS011;32083;47.360;9.650;2023-09-19T14:38:58;1.10;;;0.68;;
46377;SDS011;32083;47.360;9.650;2023-09-19T14:41:24;2.05;;;0.70;;
46377;SDS011;32083;47.360;9.650;2023-09-19T14:43:51;0.65;;;0.40;;
46377;SDS011;32083;47.360;9.650;2023-09-19T14:46:17;0.50;;;0.40;;
46377;SDS011;32083;47.360;9.650;2023-09-19T14:48:44;0.52;;;0.50;;
46377;SDS011;32083;47.360;9.650;2023-09-19T14:51:13;1.30;;;0.60;;
46377;SDS011;32083;47.360;9.650;2023-09-19T14:53:40;0.80;;;0.50;;
46377;SDS011;32083;47.360;9.650;2023-09-19T14:56:09;1.08;;;0.52;;
46377;SDS011;32083;47.360;9.650;2023-09-19T14:58:36;0.45;;;0.30;;
46377;SDS011;32083;47.360;9.650;2023-09-19T15:03:35;1.10;;;0.70;;
46377;SDS011;32083;47.360;9.650;2023-09-19T15:06:11;1.08;;;0.70;;
46377;SDS011;32083;47.360;9.650;2023-09-19T15:08:42;1.80;;;0.43;;
46377;SDS011;32083;47.360;9.650;2023-09-19T15:11:13;1.10;;;0.60;;
46377;SDS011;32083;47.360;9.650;2023-09-19T15:13:42;0.73;;;0.50;;
46377;SDS011;32083;47.360;9.650;2023-09-19T15:16:09;1.45;;;0.50;;
46377;SDS011;32083;47.360;9.650;2023-09-19T15:18:36;0.60;;;0.40;;
46377;SDS011;32083;47.360;9.650;2023-09-19T15:21:04;2.47;;;0.60;;
46377;SDS011;32083;47.360;9.650;2023-09-19T15:23:31;0.90;;;0.40;;
46377;SDS011;32083;47.360;9.650;2023-09-19T15:26:05;0.60;;;0.50;;
46377;SDS011;32083;47.360;9.650;2023-09-19T15:28:33;1.17;;;0.68;;
46377;SDS011;32083;47.360;9.650;2023-09-19T15:31:04;1.02;;;0.70;;
46377;SDS011;32083;47.360;9.650;2023-09-19T15:33:31;1.15;;;0.60;;
46377;SDS011;32083;47.360;9.650;2023-09-19T15:41:30;0.70;;;0.70;;
46377;SDS011;32083;47.360;9.650;2023-09-19T15:43:58;1.15;;;0.82;;
46377;SDS011;32083;47.360;9.650;2023-09-19T15:46:26;1.23;;;0.70;;
46377;SDS011;32083;47.360;9.650;2023-09-19T15:48:53;0.80;;;0.50;;
46377;SDS011;32083;47.360;9.650;2023-09-19T15:51:19;0.85;;;0.50;;
46377;SDS011;32083;47.360;9.650;2023-09-19T15:53:46;0.77;;;0.50;;
46377;SDS011;32083;47.360;9.650;2023-09-19T15:56:13;2.17;;;0.82;;
46377;SDS011;32083;47.360;9.650;2023-09-19T15:58:40;2.58;;;0.50;;
46377;SDS011;32083;47.360;9.650;2023-09-19T16:01:06;0.60;;;0.35;;
46377;SDS011;32083;47.360;9.650;2023-09-19T16:03:36;0.70;;;0.52;;
46377;SDS011;32083;47.360;9.650;2023-09-19T16:06:09;3.10;;;0.70;;
46377;SDS011;32083;47.360;9.650;2023-09-19T16:08:43;1.70;;;0.82;;
46377;SDS011;32083;47.360;9.650;2023-09-19T16:11:11;1.67;;;1.38;;
46377;SDS011;32083;47.360;9.650;2023-09-19T16:13:38;1.35;;;0.70;;
46377;SDS011;32083;47.360;9.650;2023-09-19T16:16:07;0.63;;;0.60;;
46377;SDS011;32083;47.360;9.650;2023-09-19T16:18:37;2.45;;;0.70;;
46377;SDS011;32083;47.360;9.650;2023-09-19T16:21:04;2.15;;;0.60;;
46377;SDS011;32083;47.360;9.650;2023-09-19T16:23:32;1.75;;;0.88;;
46377;SDS011;32083;47.360;9.650;2023-09-19T16:26:04;2.22;;;1.13;;
46377;SDS011;32083;47.360;9.650;2023-09-19T16:28:37;2.00;;;0.98;;
46377;SDS011;32083;47.360;9.650;2023-09-19T16:31:03;2.63;;;0.88;;
46377;SDS011;32083;47.360;9.650;2023-09-19T16:33:31;1.15;;;0.88;;
46377;SDS011;32083;47.360;9.650;2023-09-19T16:35:59;1.40;;;1.05;;
46377;SDS011;32083;47.360;9.650;2023-09-19T16:38:26;1.45;;;0.80;;
46377;SDS011;32083;47.360;9.650;2023-09-19T16:43:23;1.70;;;1.27;;
46377;SDS011;32083;47.360;9.650;2023-09-19T16:45:56;3.95;;;1.88;;
46377;SDS011;32083;47.360;9.650;2023-09-19T16:48:24;3.10;;;1.73;;
46377;SDS011;32083;47.360;9.650;2023-09-19T16:50:51;2.75;;;0.90;;
46377;SDS011;32083;47.360;9.650;2023-09-19T16:53:18;2.55;;;0.98;;
46377;SDS011;32083;47.360;9.650;2023-09-19T16:55:48;2.38;;;1.25;;
46377;SDS011;32083;47.360;9.650;2023-09-19T16:58:14;1.95;;;1.50;;
46377;SDS011;32083;47.360;9.650;2023-09-19T17:00:41;2.38;;;1.67;;
46377;SDS011;32083;47.360;9.650;2023-09-19T17:03:08;2.28;;;1.40;;
46377;SDS011;32083;47.360;9.650;2023-09-19T17:05:36;1.83;;;1.20;;
46377;SDS011;32083;47.360;9.650;2023-09-19T17:08:08;8.02;;;3.63;;
46377;SDS011;32083;47.360;9.650;2023-09-19T17:10:37;3.88;;;2.38;;
46377;SDS011;32083;47.360;9.650;2023-09-19T17:13:04;2.13;;;1.92;;
46377;SDS011;32083;47.360;9.650;2023-09-19T17:15:30;2.78;;;2.40;;
46377;SDS011;32083;47.360;9.650;2023-09-19T17:17:57;5.20;;;4.18;;
46377;SDS011;32083;47.360;9.650;2023-09-19T17:20:23;3.97;;;2.85;;
46377;SDS011;32083;47.360;9.650;2023-09-19T17:22:50;3.85;;;1.50;;
46377;SDS011;32083;47.360;9.650;2023-09-19T17:25:16;4.25;;;1.73;;
46377;SDS011;32083;47.360;9.650;2023-09-19T17:27:42;3.55;;;1.58;;
46377;SDS011;32083;47.360;9.650;2023-09-19T17:30:09;2.53;;;1.50;;
46377;SDS011;32083;47.360;9.650;2023-09-19T17:32:45;4.50;;;1.48;;
46377;SDS011;32083;47.360;9.650;2023-09-19T17:35:12;3.70;;;1.30;;
46377;SDS011;32083;47.360;9.650;2023-09-19T17:37:43;2.10;;;1.50;;
46377;SDS011;32083;47.360;9.650;2023-09-19T17:40:12;3.38;;;0.98;;
46377;SDS011;32083;47.360;9.650;2023-09-19T17:42:38;1.75;;;1.27;;
46377;SDS011;32083;47.360;9.650;2023-09-19T17:45:07;2.10;;;0.90;;
46377;SDS011;32083;47.360;9.650;2023-09-19T17:47:41;3.15;;;1.20;;
46377;SDS011;32083;47.360;9.650;2023-09-19T17:50:08;1.42;;;0.90;;
46377;SDS011;32083;47.360;9.650;2023-09-19T17:52:37;2.08;;;1.35;;
46377;SDS011;32083;47.360;9.650;2023-09-19T17:55:05;2.45;;;1.15;;
46377;SDS011;32083;47.360;9.650;2023-09-19T17:57:32;1.50;;;1.20;;
46377;SDS011;32083;47.360;9.650;2023-09-19T17:59:58;3.92;;;1.80;;
46377;SDS011;32083;47.360;9.650;2023-09-19T18:02:24;3.97;;;1.30;;
46377;SDS011;32083;47.360;9.650;2023-09-19T18:04:50;1.58;;;1.15;;
46377;SDS011;32083;47.360;9.650;2023-09-19T18:07:16;2.13;;;1.33;;
46377;SDS011;32083;47.360;9.650;2023-09-19T18:09:42;3.17;;;1.55;;
46377;SDS011;32083;47.360;9.650;2023-09-19T18:12:09;4.32;;;1.75;;
46377;SDS011;32083;47.360;9.650;2023-09-19T18:14:35;3.97;;;1.70;;
46377;SDS011;32083;47.360;9.650;2023-09-19T18:17:01;3.40;;;1.73;;
46377;SDS011;32083;47.360;9.650;2023-09-19T18:19:27;2.30;;;1.50;;
46377;SDS011;32083;47.360;9.650;2023-09-19T18:21:53;3.10;;;1.45;;
46377;SDS011;32083;47.360;9.650;2023-09-19T18:24:19;2.55;;;1.35;;
46377;SDS011;32083;47.360;9.650;2023-09-19T18:26:45;3.00;;;1.83;;
46377;SDS011;32083;47.360;9.650;2023-09-19T18:29:11;3.22;;;1.60;;
46377;SDS011;32083;47.360;9.650;2023-09-19T18:31:37;3.50;;;2.10;;
46377;SDS011;32083;47.360;9.650;2023-09-19T18:34:04;2.65;;;2.13;;
46377;SDS011;32083;47.360;9.650;2023-09-19T18:36:32;2.80;;;1.85;;